Time;durP1;ratioP1;P1;durP2;ratioP2;P2;SDS_P1;SDS_P2;PMS_P1;PMS_P2;Temp;Humidity;BMP_temperature;BMP_pressure;BME280_temperature;BME280_humidity;BME280_pressure;Samples;Min_cycle;Max_cycle;Signal;HPM_P1;HPM_P2
2022/12/05 12:51:16;;;;;;;;;6.80;6.80;;;;;;;;1567751;27;83111;-61
2022/12/05 12:52:07;;;;;;;;;3.25;3.25;;;;;;;;1558225;27;83577;-55
2022/12/05 12:52:52;;;;;;;;;2.80;2.80;;;;;;;;1553447;27;83675;-60
2022/12/05 12:54:33;;;;;;;;;16.80;16.80;;;;;;;;1570616;27;83351;-68
2022/12/05 12:55:27;;;;;;;;;25.00;23.75;;;;;;;;1570238;27;83881;-69
2022/12/05 12:56:13;;;;;;;;;21.80;20.60;;;;;;;;1559139;27;83973;-69
2022/12/05 12:57:04;;;;;;;;;24.50;22.00;;;;;;;;1559944;27;83860;-69
2022/12/05 12:58:08;;;;;;;;;22.80;21.20;;;;;;;;1558945;28;83628;-69
2022/12/05 12:59:03;;;;;;;;;25.75;22.75;;;;;;;;1564281;27;84098;-69
2022/12/05 12:59:48;;;;;;;;;21.40;21.40;;;;;;;;1567980;27;83921;-69
2022/12/05 13:00:56;;;;;;;;;20.75;20.00;;;;;;;;1569306;27;83566;-71
2022/12/05 13:01:47;;;;;;;;;17.75;17.75;;;;;;;;1568506;27;83508;-68
2022/12/05 13:02:42;;;;;;;;;10.75;10.75;;;;;;;;1566337;27;83612;-69
2022/12/05 13:03:41;;;;;;;;;25.20;25.20;;;;;;;;1566890;27;83575;-69
2022/12/05 13:04:39;;;;;;;;;17.40;17.20;;;;;;;;1560836;27;83781;-68
2022/12/05 13:05:37;;;;;;;;;19.20;19.20;;;;;;;;1562675;27;83645;-67
2022/12/05 13:06:27;;;;;;;;;10.00;9.80;;;;;;;;1564027;27;85226;-69
2022/12/05 13:07:12;;;;;;;;;16.00;14.20;;;;;;;;1564401;27;84067;-69
2022/12/05 13:08:01;;;;;;;;;13.33;13.33;;;;;;;;1564487;27;83493;-69
2022/12/05 13:08:49;;;;;;;;;16.20;15.00;;;;;;;;1563920;27;83789;-69
2022/12/05 13:09:40;;;;;;;;;18.40;17.60;;;;;;;;1564508;27;83466;-69
2022/12/05 13:10:29;;;;;;;;;17.80;17.40;;;;;;;;1564259;27;83491;-69
2022/12/05 13:11:16;;;;;;;;;13.80;13.80;;;;;;;;1564346;27;84120;-70
2022/12/05 13:12:06;;;;;;;;;14.00;14.00;;;;;;;;1563087;27;83914;-69
2022/12/05 13:12:51;;;;;;;;;13.00;13.00;;;;;;;;1563666;27;83284;-69
2022/12/05 13:13:43;;;;;;;;;20.00;20.00;;;;;;;;1563373;27;83909;-69
2022/12/05 13:14:30;;;;;;;;;21.60;20.80;;;;;;;;1563963;27;83624;-68
2022/12/05 13:15:17;;;;;;;;;18.60;18.60;;;;;;;;1564499;27;84071;-69
2022/12/05 13:16:06;;;;;;;;;16.00;16.00;;;;;;;;1564582;27;83825;-69
2022/12/05 13:16:53;;;;;;;;;14.80;12.80;;;;;;;;1563572;27;83652;-69
2022/12/05 13:17:40;;;;;;;;;17.40;17.40;;;;;;;;1564420;27;83650;-69
2022/12/05 13:18:25;;;;;;;;;20.60;19.40;;;;;;;;1566964;27;83550;-69
2022/12/05 13:19:22;;;;;;;;;19.00;19.00;;;;;;;;1564299;27;83101;-69
2022/12/05 13:20:13;;;;;;;;;18.60;16.60;;;;;;;;1564393;27;84038;-68
2022/12/05 13:21:01;;;;;;;;;15.00;15.00;;;;;;;;1558174;27;85774;-69
2022/12/05 13:21:46;;;;;;;;;26.20;22.40;;;;;;;;1558147;28;84733;-69
2022/12/05 13:22:32;;;;;;;;;18.00;18.00;;;;;;;;1560559;27;84037;-67
2022/12/05 13:23:19;;;;;;;;;9.00;7.50;;;;;;;;1564211;27;83196;-68
2022/12/05 13:24:05;;;;;;;;;13.60;13.60;;;;;;;;1564519;27;84273;-68
2022/12/05 13:24:51;;;;;;;;;16.00;15.00;;;;;;;;1564534;27;84172;-66
2022/12/05 13:25:38;;;;;;;;;14.50;11.25;;;;;;;;1564158;27;83987;-66
2022/12/05 13:26:23;;;;;;;;;13.40;13.40;;;;;;;;1562453;27;84491;-66
2022/12/05 13:27:17;;;;;;;;;25.25;25.25;;;;;;;;1568174;27;84059;-66
2022/12/05 13:28:04;;;;;;;;;15.00;13.20;;;;;;;;1570673;27;84246;-66
2022/12/05 13:28:49;;;;;;;;;16.00;16.00;;;;;;;;1570614;27;84198;-66
2022/12/05 13:29:34;;;;;;;;;19.00;19.00;;;;;;;;1564795;27;84191;-68
2022/12/05 13:30:20;;;;;;;;;20.75;18.50;;;;;;;;1561755;27;84506;-70
2022/12/05 13:31:05;;;;;;;;;12.00;12.00;;;;;;;;1564271;27;84001;-71
2022/12/05 13:31:51;;;;;;;;;12.50;12.50;;;;;;;;1563051;27;84297;-70
2022/12/05 13:32:39;;;;;;;;;15.00;15.00;;;;;;;;1564029;27;84220;-71
2022/12/05 13:33:25;;;;;;;;;20.60;20.60;;;;;;;;1562858;27;84275;-70
2022/12/05 13:34:29;;;;;;;;;17.40;16.60;;;;;;;;1564028;27;84315;-70
2022/12/05 13:43:01;;;;;;;;;16.60;16.00;;;;;;;;1558591;28;83760;-69
2022/12/05 13:43:49;;;;;;;;;20.60;20.20;;;;;;;;1560740;28;83397;-70
2022/12/05 13:44:37;;;;;;;;;17.00;15.20;;;;;;;;1553608;27;83555;-69
2022/12/05 13:45:22;;;;;;;;;10.40;10.40;;;;;;;;1558512;28;83183;-69
2022/12/05 13:46:17;;;;;;;;;20.00;20.00;;;;;;;;1557312;27;83472;-69
2022/12/05 13:47:06;;;;;;;;;15.40;14.00;;;;;;;;1552520;28;83400;-72
2022/12/05 13:48:00;;;;;;;;;10.40;10.40;;;;;;;;1557159;27;83597;-68
2022/12/05 13:48:47;;;;;;;;;13.60;13.60;;;;;;;;1558591;27;84984;-68
2022/12/05 13:49:42;;;;;;;;;12.40;12.40;;;;;;;;1558016;28;83545;-70
2022/12/05 13:50:43;;;;;;;;;16.80;16.80;;;;;;;;1558332;28;83900;-70
2022/12/05 13:51:38;;;;;;;;;21.20;20.80;;;;;;;;1558441;28;83887;-70
2022/12/05 13:52:25;;;;;;;;;14.60;14.60;;;;;;;;1558451;28;83697;-69
2022/12/05 13:53:30;;;;;;;;;13.20;12.20;;;;;;;;1558060;28;83652;-70
2022/12/05 13:54:20;;;;;;;;;7.20;7.20;;;;;;;;1558442;28;84091;-68
2022/12/05 13:55:23;;;;;;;;;17.40;17.40;;;;;;;;1558901;28;83536;-69
2022/12/05 13:56:11;;;;;;;;;19.80;19.40;;;;;;;;1557183;28;83755;-70
2022/12/05 13:57:00;;;;;;;;;25.40;22.00;;;;;;;;1558131;28;83532;-69
2022/12/05 13:57:47;;;;;;;;;14.20;14.20;;;;;;;;1555436;28;83481;-69
2022/12/05 13:58:36;;;;;;;;;18.80;18.20;;;;;;;;1552286;28;83612;-72
2022/12/05 13:59:40;;;;;;;;;19.80;19.80;;;;;;;;1552125;28;83769;-68
2022/12/05 14:00:30;;;;;;;;;12.80;12.80;;;;;;;;1552319;28;83701;-68
2022/12/05 14:01:27;;;;;;;;;14.20;11.60;;;;;;;;1553792;28;83951;-69
2022/12/05 14:02:30;;;;;;;;;13.40;13.00;;;;;;;;1552897;28;83657;-69
2022/12/05 14:03:35;;;;;;;;;12.40;12.40;;;;;;;;1558353;28;83718;-68
2022/12/05 14:04:23;;;;;;;;;13.20;11.40;;;;;;;;1558100;28;84087;-68
2022/12/05 14:05:17;;;;;;;;;9.00;9.00;;;;;;;;1558690;28;83333;-68
2022/12/05 14:06:03;;;;;;;;;13.40;13.40;;;;;;;;1554158;28;83976;-69
2022/12/05 14:06:55;;;;;;;;;9.00;9.00;;;;;;;;1554682;28;83238;-68
2022/12/05 14:07:47;;;;;;;;;12.80;12.80;;;;;;;;1554060;28;83828;-69
2022/12/05 14:08:38;;;;;;;;;12.80;12.80;;;;;;;;1556648;28;83705;-67
2022/12/05 14:09:47;;;;;;;;;14.00;14.00;;;;;;;;1553901;28;83446;-69
2022/12/05 14:10:35;;;;;;;;;22.00;20.80;;;;;;;;1554158;28;83690;-68
2022/12/05 14:11:20;;;;;;;;;32.00;29.20;;;;;;;;1550164;28;83533;-69
2022/12/05 14:12:08;;;;;;;;;32.75;29.75;;;;;;;;1554453;28;83432;-69
2022/12/05 14:12:55;;;;;;;;;31.60;29.80;;;;;;;;1553804;28;83543;-70
2022/12/05 14:13:41;;;;;;;;;25.60;24.60;;;;;;;;1547923;28;83910;-69
2022/12/05 14:14:45;;;;;;;;;20.80;20.40;;;;;;;;1547600;28;83935;-69
2022/12/05 14:15:32;;;;;;;;;18.60;18.20;;;;;;;;1548063;28;83572;-69
2022/12/05 14:16:17;;;;;;;;;17.40;17.40;;;;;;;;1548665;28;83461;-71
2022/12/05 14:17:02;;;;;;;;;22.75;22.75;;;;;;;;1548180;28;83622;-69
2022/12/05 14:17:47;;;;;;;;;12.00;9.50;;;;;;;;1548873;28;83738;-70
2022/12/05 14:18:41;;;;;;;;;11.50;11.50;;;;;;;;1554738;28;83665;-69
2022/12/05 14:19:29;;;;;;;;;12.40;12.40;;;;;;;;1554180;28;83636;-70
2022/12/05 14:20:14;;;;;;;;;22.40;20.00;;;;;;;;1554230;28;83372;-70
2022/12/05 14:20:59;;;;;;;;;18.75;18.75;;;;;;;;1553851;28;85419;-70
2022/12/05 14:21:49;;;;;;;;;19.00;17.00;;;;;;;;1553811;28;83423;-68
2022/12/05 14:22:41;;;;;;;;;17.40;17.40;;;;;;;;1553602;28;83813;-69
2022/12/05 14:23:51;;;;;;;;;22.60;20.80;;;;;;;;1553467;28;86076;-69
2022/12/05 14:24:59;;;;;;;;;21.60;21.60;;;;;;;;1559122;28;83517;-69
2022/12/05 14:25:54;;;;;;;;;11.60;11.40;;;;;;;;1564468;27;83478;-69
2022/12/05 14:26:51;;;;;;;;;26.60;25.60;;;;;;;;1561123;27;84308;-69
2022/12/05 14:27:40;;;;;;;;;22.80;20.20;;;;;;;;1559689;28;83679;-68
2022/12/05 14:28:37;;;;;;;;;17.20;17.20;;;;;;;;1559742;28;83504;-68
2022/12/05 14:29:31;;;;;;;;;20.80;19.60;;;;;;;;1565441;27;83758;-68
2022/12/05 14:30:20;;;;;;;;;22.80;20.60;;;;;;;;1563439;27;84049;-68
2022/12/05 14:31:22;;;;;;;;;23.00;21.00;;;;;;;;1563585;27;83749;-68
2022/12/05 14:32:18;;;;;;;;;17.60;15.80;;;;;;;;1566147;27;83309;-68
2022/12/05 14:33:11;;;;;;;;;19.00;19.00;;;;;;;;1568999;27;83994;-68
2022/12/05 14:34:23;;;;;;;;;21.60;19.40;;;;;;;;1565977;27;84471;-69
2022/12/05 14:35:13;;;;;;;;;17.40;17.40;;;;;;;;1566131;27;84041;-67
2022/12/05 14:36:05;;;;;;;;;23.60;23.60;;;;;;;;1566406;27;83887;-67
2022/12/05 14:37:01;;;;;;;;;13.80;13.80;;;;;;;;1565398;27;84639;-67
2022/12/05 14:37:55;;;;;;;;;15.60;13.40;;;;;;;;1560029;28;84079;-65
2022/12/05 14:38:40;;;;;;;;;15.20;14.60;;;;;;;;1560122;28;83395;-67
2022/12/05 14:39:28;;;;;;;;;15.50;14.00;;;;;;;;1560008;27;83330;-68
2022/12/05 14:40:19;;;;;;;;;15.00;15.00;;;;;;;;1559924;28;85298;-68
2022/12/05 14:41:13;;;;;;;;;14.60;14.60;;;;;;;;1559987;28;83165;-66
2022/12/05 14:41:59;;;;;;;;;22.40;21.00;;;;;;;;1563982;27;83827;-67
2022/12/05 14:42:55;;;;;;;;;15.20;15.20;;;;;;;;1566234;27;83335;-66
2022/12/05 14:43:41;;;;;;;;;12.40;12.40;;;;;;;;1566018;27;84495;-66
2022/12/05 14:44:30;;;;;;;;;15.60;15.60;;;;;;;;1565607;27;84035;-66
2022/12/05 14:45:22;;;;;;;;;17.80;17.40;;;;;;;;1565910;27;83245;-66
2022/12/05 14:46:15;;;;;;;;;14.60;14.60;;;;;;;;1565616;27;83297;-66
2022/12/05 14:47:02;;;;;;;;;19.60;17.20;;;;;;;;1566376;27;84209;-66
2022/12/05 14:47:51;;;;;;;;;21.80;20.60;;;;;;;;1566236;27;84203;-66
2022/12/05 14:48:39;;;;;;;;;17.40;16.40;;;;;;;;1566262;27;84031;-66
2022/12/05 14:49:43;;;;;;;;;12.80;12.80;;;;;;;;1566311;27;84486;-67
2022/12/05 14:50:51;;;;;;;;;11.40;11.40;;;;;;;;1566163;27;83408;-66
2022/12/05 14:51:39;;;;;;;;;13.20;12.80;;;;;;;;1566269;27;84301;-66
2022/12/05 14:52:25;;;;;;;;;10.60;10.60;;;;;;;;1566307;27;84236;-67
2022/12/05 14:53:16;;;;;;;;;9.20;9.20;;;;;;;;1559587;28;86631;-66
2022/12/05 14:54:06;;;;;;;;;7.40;7.40;;;;;;;;1559944;28;84017;-66
2022/12/05 14:54:52;;;;;;;;;11.40;11.40;;;;;;;;1563588;27;84221;-66
2022/12/05 14:55:38;;;;;;;;;10.80;10.80;;;;;;;;1565644;27;83585;-66
2022/12/05 14:56:26;;;;;;;;;10.50;10.50;;;;;;;;1565974;27;84188;-67
2022/12/05 14:57:15;;;;;;;;;13.80;12.60;;;;;;;;1566347;27;83076;-66
2022/12/05 14:58:01;;;;;;;;;16.00;16.00;;;;;;;;1569066;27;84167;-66
2022/12/05 14:58:47;;;;;;;;;16.20;15.00;;;;;;;;1566010;27;83561;-66
2022/12/05 14:59:44;;;;;;;;;9.40;9.40;;;;;;;;1566214;27;83533;-66
2022/12/05 15:00:29;;;;;;;;;13.20;12.60;;;;;;;;1564551;27;83580;-66
2022/12/05 15:01:14;;;;;;;;;13.50;12.50;;;;;;;;1566176;27;83512;-67
2022/12/05 15:02:01;;;;;;;;;7.00;7.00;;;;;;;;1566457;27;83364;-67
2022/12/05 15:02:48;;;;;;;;;8.60;8.60;;;;;;;;1555984;27;83366;-67
2022/12/05 15:03:35;;;;;;;;;12.40;11.00;;;;;;;;1553796;28;84914;-67
2022/12/05 15:04:39;;;;;;;;;13.40;13.40;;;;;;;;1553849;28;83435;-68
2022/12/05 15:05:31;;;;;;;;;14.80;14.80;;;;;;;;1554281;28;83991;-67
2022/12/05 15:06:17;;;;;;;;;12.60;11.00;;;;;;;;1554115;28;83657;-66
2022/12/05 15:07:09;;;;;;;;;13.00;13.00;;;;;;;;1554395;28;83368;-68
2022/12/05 15:07:56;;;;;;;;;13.00;13.00;;;;;;;;1554229;28;83541;-68
2022/12/05 15:08:49;;;;;;;;;9.60;9.60;;;;;;;;1554325;28;83469;-67
2022/12/05 15:09:54;;;;;;;;;11.20;11.20;;;;;;;;1554437;28;83414;-67
2022/12/05 15:10:41;;;;;;;;;11.60;11.60;;;;;;;;1550349;28;83540;-67
2022/12/05 15:11:29;;;;;;;;;7.80;7.80;;;;;;;;1554509;28;83881;-67
2022/12/05 15:12:17;;;;;;;;;11.80;11.80;;;;;;;;1554597;28;83336;-67
2022/12/05 15:13:06;;;;;;;;;11.80;11.80;;;;;;;;1553809;28;85759;-66
2022/12/05 15:13:51;;;;;;;;;12.40;12.40;;;;;;;;1553870;28;83543;-65
2022/12/05 15:14:57;;;;;;;;;7.00;7.00;;;;;;;;1553555;28;83461;-68
2022/12/05 15:15:50;;;;;;;;;8.60;8.60;;;;;;;;1548056;28;83658;-66
2022/12/05 15:16:37;;;;;;;;;2.00;2.00;;;;;;;;1550210;28;83302;-66
2022/12/05 15:17:25;;;;;;;;;11.60;11.60;;;;;;;;1553639;28;83369;-66
2022/12/05 15:18:11;;;;;;;;;16.60;15.20;;;;;;;;1553824;28;83951;-65
2022/12/05 15:19:02;;;;;;;;;7.00;7.00;;;;;;;;1554499;28;83547;-64
2022/12/05 15:19:53;;;;;;;;;11.40;11.40;;;;;;;;1554434;28;83435;-67
2022/12/05 15:20:41;;;;;;;;;9.60;9.60;;;;;;;;1554258;28;83836;-66
2022/12/05 15:21:37;;;;;;;;;6.60;6.60;;;;;;;;1557137;28;83155;-66
2022/12/05 15:22:24;;;;;;;;;10.80;10.80;;;;;;;;1554516;28;84112;-68
2022/12/05 15:23:28;;;;;;;;;8.20;8.20;;;;;;;;1554362;28;83930;-69
2022/12/05 15:24:14;;;;;;;;;13.40;13.40;;;;;;;;1554420;28;83386;-65
2022/12/05 15:25:14;;;;;;;;;13.60;13.60;;;;;;;;1552967;28;83610;-67
2022/12/05 15:26:00;;;;;;;;;9.40;9.40;;;;;;;;1547984;28;83644;-68
2022/12/05 15:26:52;;;;;;;;;8.25;8.25;;;;;;;;1548189;28;83570;-68
2022/12/05 15:27:37;;;;;;;;;9.00;9.00;;;;;;;;1548067;28;83607;-68
2022/12/05 15:28:23;;;;;;;;;9.75;9.75;;;;;;;;1548038;28;83668;-68
2022/12/05 15:29:14;;;;;;;;;7.50;7.25;;;;;;;;1548011;28;83718;-69
2022/12/05 15:29:59;;;;;;;;;13.40;10.00;;;;;;;;1547860;28;83971;-68
2022/12/05 15:30:53;;;;;;;;;8.00;8.00;;;;;;;;1553769;28;83633;-67
2022/12/05 15:31:43;;;;;;;;;8.40;8.00;;;;;;;;1554414;28;83480;-67
2022/12/05 15:32:28;;;;;;;;;8.40;8.40;;;;;;;;1553777;28;87151;-72
2022/12/05 15:33:13;;;;;;;;;10.00;9.25;;;;;;;;1554075;28;83903;-68
2022/12/05 15:34:02;;;;;;;;;15.00;15.00;;;;;;;;1554109;28;83746;-67
2022/12/05 15:35:01;;;;;;;;;7.20;7.20;;;;;;;;1554254;28;83516;-68
2022/12/05 15:35:48;;;;;;;;;12.60;12.60;;;;;;;;1554384;28;83553;-69
2022/12/05 15:36:36;;;;;;;;;15.60;15.60;;;;;;;;1553814;28;84117;-67
2022/12/05 15:37:23;;;;;;;;;13.20;13.20;;;;;;;;1554262;28;83713;-68
2022/12/05 15:38:17;;;;;;;;;13.60;12.60;;;;;;;;1554220;28;84025;-69
2022/12/05 15:39:15;;;;;;;;;11.60;11.60;;;;;;;;1554144;28;83653;-71
2022/12/05 15:40:03;;;;;;;;;12.40;12.40;;;;;;;;1552307;28;83363;-69
2022/12/05 15:40:48;;;;;;;;;13.00;13.00;;;;;;;;1554119;28;83690;-68
2022/12/05 15:41:34;;;;;;;;;17.75;17.75;;;;;;;;1554213;28;83646;-68
2022/12/05 15:42:23;;;;;;;;;10.75;10.75;;;;;;;;1554168;28;83614;-69
2022/12/05 15:43:27;;;;;;;;;22.40;21.80;;;;;;;;1555210;28;83558;-69
2022/12/05 15:44:12;;;;;;;;;16.20;16.20;;;;;;;;1548037;28;83759;-69
2022/12/05 15:45:16;;;;;;;;;11.50;11.50;;;;;;;;1547891;28;83781;-69
2022/12/05 15:46:08;;;;;;;;;16.60;16.60;;;;;;;;1553383;28;84245;-70
2022/12/05 15:46:54;;;;;;;;;13.80;13.80;;;;;;;;1553520;28;85095;-69
2022/12/05 15:47:47;;;;;;;;;8.60;8.60;;;;;;;;1553781;28;84218;-69
2022/12/05 15:48:33;;;;;;;;;29.20;27.40;;;;;;;;1553913;28;84214;-67
2022/12/05 15:49:22;;;;;;;;;23.00;22.25;;;;;;;;1554112;28;84112;-67
2022/12/05 15:50:12;;;;;;;;;11.40;11.40;;;;;;;;1554162;28;83798;-67
2022/12/05 15:50:57;;;;;;;;;15.60;15.60;;;;;;;;1553680;28;84233;-68
2022/12/05 15:51:43;;;;;;;;;22.25;22.25;;;;;;;;1553977;28;84416;-67
2022/12/05 15:52:50;;;;;;;;;19.60;19.60;;;;;;;;1553976;28;84265;-68
2022/12/05 15:53:39;;;;;;;;;19.00;17.40;;;;;;;;1553932;28;84480;-67
2022/12/05 15:54:28;;;;;;;;;26.00;24.20;;;;;;;;1556335;28;84383;-67
2022/12/05 15:55:16;;;;;;;;;18.80;18.80;;;;;;;;1552793;28;83075;-67
2022/12/05 15:56:08;;;;;;;;;19.60;19.60;;;;;;;;1554147;28;82821;-67
2022/12/05 15:56:57;;;;;;;;;18.80;18.80;;;;;;;;1553774;28;84610;-67
2022/12/05 15:58:04;;;;;;;;;15.00;15.00;;;;;;;;1553950;28;84613;-67
2022/12/05 15:59:06;;;;;;;;;14.00;14.00;;;;;;;;1553863;28;83372;-67
2022/12/05 16:00:00;;;;;;;;;11.80;11.80;;;;;;;;1551468;28;84295;-66
2022/12/05 16:00:47;;;;;;;;;16.40;16.40;;;;;;;;1547830;28;84148;-67
2022/12/05 16:01:38;;;;;;;;;12.60;12.60;;;;;;;;1547836;28;84253;-66
2022/12/05 16:02:49;;;;;;;;;15.60;15.60;;;;;;;;1547988;28;83044;-67
2022/12/05 16:03:37;;;;;;;;;13.00;13.00;;;;;;;;1548511;28;83634;-68
2022/12/05 16:04:27;;;;;;;;;14.40;14.40;;;;;;;;1547910;28;84382;-68
2022/12/05 16:05:24;;;;;;;;;16.20;16.20;;;;;;;;1547863;28;84590;-67
2022/12/05 16:06:12;;;;;;;;;18.60;18.60;;;;;;;;1547814;28;84628;-68
2022/12/05 16:07:00;;;;;;;;;21.20;19.60;;;;;;;;1547715;28;84022;-68
2022/12/05 16:07:45;;;;;;;;;24.80;24.80;;;;;;;;1547686;28;83056;-68
2022/12/05 16:08:39;;;;;;;;;17.25;17.25;;;;;;;;1551857;28;83875;-67
2022/12/05 16:09:30;;;;;;;;;25.60;24.60;;;;;;;;1552829;28;84214;-67
2022/12/05 16:10:15;;;;;;;;;25.40;22.00;;;;;;;;1550602;28;84635;-68
2022/12/05 16:11:08;;;;;;;;;19.75;19.75;;;;;;;;1547616;28;83678;-68
2022/12/05 16:11:57;;;;;;;;;24.80;22.40;;;;;;;;1548264;28;83393;-68
2022/12/05 16:12:42;;;;;;;;;18.00;17.80;;;;;;;;1552670;28;83703;-68
2022/12/05 16:13:28;;;;;;;;;16.75;16.00;;;;;;;;1551928;28;83153;-67
